首页
METAR-TAF:

METAR-TAF

机场 :

阿尔皮纳, 密歇根州, 美国

纬度: 45-04-18N, 经度: 083-33-52W, 海拔: 210米

当前天气观测

该预报发布于43分钟前的08:54 UTC
风速4节,风向多变
温度 -10°C
湿度 85%
气压 1025 hPa
能見度: 16.1公里
天空无云

METAR: KAPN 130854Z AUTO VRB04KT 10SM CLR M10/M12 A3028 RMK AO2 SLP268 T11001117 58001 $

时间: 04:37 (09:37 UTC)

预报

该预报发布于4小时和17分钟前的05:20 UTC
预报有效从13日的 06点(UTC)到 14日的 06点(UTC)
风速6节,风向西
能見度: 10公里
散云层高于5000英尺
从 13日的 1000点(UTC)
风速5节,风向南转西南
能見度: 10公里
散云层高于6000英尺
从 13日的 1700点(UTC)
风速11节,风向,有时为19节阵风
能見度: 10公里
阴天层高于3500英尺
从 13日的 2100点(UTC)
风速12节,风向,有时为19节阵风
能見度: 6.4公里
阴天层高于3000英尺
小阵雪
从 13日的 2300点(UTC)
风速10节,风向南转西南
能見度: 3.2公里
阴天层高于2800英尺
小阵雪
从 14日的 0100点(UTC)
风速9节,风向南转西南
能見度: 2.4公里
阴天层高于2200英尺
小阵雪
从 14日的 0400点(UTC)
风速8节,风向南转西南
能見度: 1.6公里
阴天层高于2800英尺
小阵雪

TAF: KAPN 130520Z 1306/1406 28006KT P6SM SCT050 FM131000 20005KT P6SM SCT060 FM131700 19011G19KT P6SM OVC035 FM132100 18012G19KT 4SM -SHSN OVC030 FM132300 20010KT 2SM -SHSN OVC028 FM140100 20009KT 1 1/2SM -SHSN OVC022 FM140400 21008KT 2SM -SHSN OVC028

超过4000个机场的气象观测和天气预报(METAR&TAF报告)。

可查询的气象台以黄色和红色小点在地图上表示。

将鼠标移到小点上方,可查看气象台名称。

然后点击查看天气观测和预报。

如需切换地图:点击带黑十字的绿色按钮放大地图;点击带横线的绿色按钮缩小地图;或者点击绿色箭头查看邻近地区的地图。


METAR-TAF: